Tiempo atmosférico en la estación meteorológica de Arico, Santa Cruz de Tenerife (418 m.)



Fecha
DESCASC
Temp. máxima en grados centígrados (hora)
DESCASC
Temp. mínima en grados centígrados (hora)
DESCASC
Temp. media en grados centígrados
DESCASC
Racha de viento máxima en m/sg (hora)
DESCASC
Velocidad máxima media en intervalos de 10 minutos(hora)
DESCASC
Precipitaciones diarias en mm
DESCASC
Precipitaciones de 00:00 a 06:00 en mm
DESCASC
Precipitaciones de 06:00 a 12:00 en mm
DESCASC
Precipitaciones de 12:00 a 18:00 en mm
DESCASC
Precipitaciones de 18:00 a 24:00 en mm
DESCASC
13-10-2019 22.9 (12:20) 16.3 (08:00) 19.6 6.39 (14:20) 3.33 (14:20) 0 0 0 0 0
12-10-2019 24.6 (14:50) 16 (07:30) 20.3 6.94 (14:20) 3.89 (13:50) 0 0 0 0 0
10-10-2019 23 (12:30) 17 (00:00) 20 9.72 (11:40) 6.39 (11:40) 0.4 0 0 0 0.4
09-10-2019 23.9 (13:50) 16.4 (00:00) 20.1 10.83 (14:50) 6.67 (13:00) 0 0 0 0 0
08-10-2019 24.3 (13:50) 16.8 (00:00) 20.5 9.44 (16:30) 6.11 (15:50) 0 0 0 0 0
07-10-2019 24.4 (14:40) 16.7 (00:00) 20.6 9.72 (11:20) 6.39 (11:20) 0 0 0 0 0
06-10-2019 23 (13:00) 17.9 (00:00) 20.4 13.33 (16:50) 8.89 (11:20) 0 0 0 0 0
05-10-2019 24.8 (14:10) 17.9 (00:40) 21.3 15.28 (09:40) 10 (08:40) 0 0 0 0 0
04-10-2019 24.9 (14:00) 18 (00:00) 21.4 11.39 (13:00) 7.5 (14:40) 0 0 0 0 0
03-10-2019 26.1 (13:00) 19 (00:00) 22.6 9.44 (15:20) 6.11 (15:00) 0 0 0 0 0
02-10-2019 34.2 (13:20) 19 (00:00) 26.6 8.61 (14:10) 5.56 (12:40) 0 0 0 0 0
01-10-2019 32.3 (11:40) 19.4 (00:00) 25.8 8.89 (12:50) 5.83 (14:40) 0 0 0 0 0
30-09-2019 30.1 (13:10) 18.4 (00:00) 24.3 7.5 (02:10) 5 (02:10) 0 0 0 0 0
29-09-2019 26 (14:00) 17.5 (00:00) 21.8 8.33 (11:20) 5.56 (11:30) 0 0 0 0 0
28-09-2019 24.1 (14:50) 17.2 (00:00) 20.7 12.78 (15:50) 6.94 (13:20) 0 0 0 0 0
27-09-2019 24.5 (15:10) 17.5 (00:00) 21 11.94 (16:00) 7.22 (11:50) 0 0 0 0 0
26-09-2019 23.9 (14:20) 17.7 (00:00) 20.8 13.89 (13:50) 8.33 (12:30) 0 0 0 0 0
25-09-2019 24.3 (14:20) 16.8 (00:00) 20.5 13.89 (14:50) 7.78 (15:00) 0 0 0 0 0
24-09-2019 23.2 (11:50) 17.2 (00:00) 20.2 13.33 (13:50) 7.78 (17:40) 0 0 0 0 0
23-09-2019 21.6 (15:50) 17.5 (00:00) 19.6 11.94 (13:50) 6.67 (16:30) 0 0 0 0 0
22-09-2019 26.8 (12:10) 17.9 (00:00) 22.3 10 (21:50) 6.39 (21:50) 4.2 0 0 0 4.2
21-09-2019 25.1 (11:40) 17.5 (00:00) 21.3 5 (11:40) 3.33 (06:50) 0 0 0 0 0
20-09-2019 24.5 (13:40) 16.8 (00:00) 20.6 8.33 (14:50) 5.28 (15:10) 0 0 0 0 0
19-09-2019 23.8 (14:20) 17.1 (00:00) 20.4 10.83 (13:50) 7.5 (12:00) 0 0 0 0 0
18-09-2019 24.2 (13:20) 16.9 (00:00) 20.6 9.72 (15:10) 6.39 (14:20) 0 0 0 0 0
17-09-2019 24.6 (14:50) 18.8 (00:00) 21.7 9.17 (17:50) 5.28 (17:10) 0 0 0 0 0
16-09-2019 26.4 (14:20) 18.5 (00:00) 22.4 15.56 (18:30) 6.39 (18:30) 13.8 0 1.8 2.8 9.2

Gráficas

Temp. máximas Temp. mínimas Temp. medias Precipitaciones Rachas de viento máximas Velocidades máximas media en intervalos de 10 minutos

Datos horarios

Fecha y hora oficial Temperatura (ºC) Velocidad del viento (km/h) Dirección del viento Racha (km/h) Dirección de racha Precipitación (mm) Presión (hPa) Tendencia (hPa) Humedad (%)
2019-10-15 23:00:00 17.6 20 Nordeste 40 Nordeste 0 -- -- 80
2019-10-15 22:00:00 18 19 Nordeste 38 Nordeste 0 -- -- 78
2019-10-15 21:00:00 18.2 23 Nordeste 37 Nordeste 0 -- -- 77
2019-10-15 20:00:00 18.4 21 Nordeste 38 Nordeste 0 -- -- 76
2019-10-15 19:00:00 18.8 20 Nordeste 35 Nordeste 0 -- -- 75
2019-10-15 18:00:00 19.6 19 Nordeste 34 Nordeste 0 -- -- 70
2019-10-15 17:00:00 20.9 19 Nordeste 35 Nordeste 0 -- -- 66
2019-10-15 16:00:00 20.8 21 Nordeste 31 Nordeste 0 -- -- 69
2019-10-15 15:00:00 20.4 17 Nordeste 34 Este 0 -- -- 71
2019-10-15 14:00:00 21.8 19 Nordeste 36 Nordeste 0 -- -- 67
2019-10-15 13:00:00 21.8 21 Nordeste 37 Este 0 -- -- 67
2019-10-15 12:00:00 20.6 22 Nordeste 33 Nordeste 0 -- -- 71
2019-10-15 11:00:00 20 20 Nordeste 29 Este 0 -- -- 71
2019-10-15 10:00:00 18.6 20 Nordeste 33 Nordeste 0 -- -- 76
2019-10-15 09:00:00 17.6 20 Nordeste 33 Nordeste 0 -- -- 81
2019-10-15 08:00:00 17.2 16 Nordeste 30 Nordeste 0 -- -- 84
2019-10-15 07:00:00 17.1 15 Nordeste 30 Nordeste 0 -- -- 85
2019-10-15 06:00:00 15.8 8 Norte 14 Norte 0 -- -- 81
2019-10-15 05:00:00 15.5 7 Noroeste 14 Norte 0 -- -- 77
2019-10-15 04:00:00 15.9 8 Norte 17 Nordeste 0 -- -- 76
2019-10-15 03:00:00 16.2 9 Norte 20 Nordeste 0 -- -- 75
2019-10-15 02:00:00 16.8 12 Norte 26 Norte 0 -- -- 75
2019-10-15 01:00:00 16.8 12 Norte 23 Nordeste 0 -- -- 78
2019-10-15 00:00:00 17.2 14 Norte 23 Norte 0 -- -- 78
2019-10-14 23:00:00 16.9 10 Norte 17 Norte 0 -- -- 79
2019-10-14 22:00:00 17.2 11 Nordeste 24 Norte 0 -- -- 80
2019-10-14 21:00:00 17.6 9 Nordeste 23 Nordeste 0 -- -- 82
2019-10-14 20:00:00 18.1 12 Nordeste 26 Nordeste 0 -- -- 80
2019-10-14 19:00:00 18.9 18 Nordeste 32 Nordeste 0 -- -- 77
2019-10-14 18:00:00 19.7 22 Nordeste 35 Este 0 -- -- 72
2019-10-14 17:00:00 21.4 21 Nordeste 36 Nordeste 0 -- -- 68
2019-10-14 16:00:00 21.9 23 Nordeste 37 Nordeste 0 -- -- 68
2019-10-14 15:00:00 20.9 22 Nordeste 35 Este 0 -- -- 71
2019-10-14 14:00:00 20.3 22 Nordeste 36 Nordeste 0 -- -- 78
2019-10-14 13:00:00 20.3 22 Nordeste 36 Este 0 -- -- 77
2019-10-14 12:00:00 20.8 22 Nordeste 36 Nordeste 0 -- -- 76
2019-10-14 11:00:00 20.7 15 Nordeste 29 Este 0 -- -- 75
2019-10-14 10:00:00 20.5 15 Nordeste 26 Nordeste 0 -- -- 73
2019-10-14 09:00:00 17.8 11 Nordeste 26 Este 0 -- -- 89
2019-10-14 08:00:00 17.1 9 Nordeste 21 Norte 0 -- -- 91
2019-10-14 07:00:00 17.1 8 Nordeste 12 Nordeste 0 -- -- 88
2019-10-14 06:00:00 17 4 Noroeste 10 Noroeste 0 -- -- 81
2019-10-14 05:00:00 17.4 6 Norte 13 Noroeste 0 -- -- 84
2019-10-14 04:00:00 17.1 7 Noroeste 12 Noroeste 0 -- -- 83
2019-10-14 03:00:00 16.7 6 Noroeste 11 Norte 0 -- -- 82
2019-10-14 02:00:00 16.7 5 Norte 12 Noroeste 0 -- -- 84
2019-10-14 01:00:00 17.1 7 Noroeste 12 Noroeste 0 -- -- 85
2019-10-14 00:00:00 18 4 Noroeste 7 Noroeste 0 -- -- 86
2019-10-13 23:00:00 18.6 4 Noroeste 10 Nordeste 0 -- -- 85
2019-10-13 22:00:00 19 2 Sudeste 8 Nordeste 0 -- -- 86
2019-10-13 21:00:00 19 6 Nordeste 9 Nordeste 0 -- -- 85
2019-10-13 20:00:00 19.4 5 Este 12 Este 0 -- -- 84
2019-10-13 19:00:00 20.2 5 Este 13 Este 0 -- -- 76
2019-10-13 18:00:00 20.7 9 Este 15 Este 0 -- -- 73
2019-10-13 17:00:00 20.9 6 Este 14 Este 0 -- -- 75
2019-10-13 16:00:00 21 6 Sudeste 19 Sudeste 0 -- -- 74
2019-10-13 15:00:00 21.5 8 Sur 23 Sudeste 0 -- -- 72
2019-10-13 14:00:00 21.4 10 Sudeste 20 Sudeste 0 -- -- 73
2019-10-13 13:00:00 22 9 Sur 19 Sudeste 0 -- -- 69
2019-10-13 12:00:00 22.2 9 Sudeste 15 Sudeste 0 -- -- 67
2019-10-13 11:00:00 19.9 4 Este 10 Sudeste 0 -- -- 74
2019-10-13 10:00:00 20.8 6 Sudeste 12 Sudeste 0 -- -- 70
2019-10-13 09:00:00 17.8 6 Oeste 14 Noroeste 0 -- -- 77
2019-10-13 08:00:00 16.3 9 Noroeste 12 Noroeste 0 -- -- 76
2019-10-13 07:00:00 17 6 Noroeste 10 Noroeste 0 -- -- 80
2019-10-13 06:00:00 16.5 6 Noroeste 14 Noroeste 0 -- -- 80
2019-10-13 05:00:00 16.8 5 Noroeste 10 Noroeste 0 -- -- 80
2019-10-13 04:00:00 17.6 8 Noroeste 13 Oeste 0 -- -- 74
2019-10-13 03:00:00 17.6 4 Noroeste 10 Noroeste 0 -- -- 74
2019-10-13 02:00:00 18.3 5 Noroeste 12 Nordeste 0 -- -- 71
2019-10-13 01:00:00 18.7 7 Nordeste 15 Nordeste 0 -- -- 83
2019-10-13 00:00:00 18.9 8 Nordeste 16 Nordeste 0 -- -- 81
2019-10-12 23:00:00 19.1 8 Nordeste 13 Nordeste 0 -- -- 79
2019-10-12 22:00:00 19.2 8 Este 17 Nordeste 0 -- -- 79
2019-10-12 21:00:00 19.3 4 Este 12 Este 0 -- -- 74
2019-10-12 20:00:00 19.5 6 Este 15 Este 0 -- -- 73
2019-10-12 19:00:00 20.2 8 Nordeste 15 Nordeste 0 -- -- 71
2019-10-12 18:00:00 20.9 8 Este 18 Este 0 -- -- 67
2019-10-12 17:00:00 22 8 Este 20 Este 0 -- -- 67
2019-10-12 16:00:00 23.3 12 Este 23 Este 0 -- -- 61
2019-10-12 15:00:00 24.1 13 Este 25 Este 0 -- -- 56
2019-10-12 14:00:00 24.1 12 Este 24 Este 0 -- -- 57
2019-10-12 13:00:00 23.1 11 Nordeste 22 Este 0 -- -- 56
2019-10-12 12:00:00 22.6 11 Nordeste 21 Este 0 -- -- 63
2019-10-12 11:00:00 21.9 12 Nordeste 22 Este 0 -- -- 64
2019-10-12 10:00:00 19.8 5 Este 15 Este 0 -- -- 69
2019-10-12 09:00:00 17.2 6 Noroeste 14 Noroeste 0 -- -- 79
2019-10-12 08:00:00 16.1 10 Noroeste 17 Noroeste 0 -- -- 79
2019-10-12 07:00:00 16.7 3 Noroeste 16 Noroeste 0 -- -- 78
2019-10-12 06:00:00 16.3 8 Noroeste 10 Noroeste 0 -- -- 80
2019-10-12 05:00:00 16.7 3 Sudoeste 14 Oeste 0 -- -- 75
2019-10-12 04:00:00 17 10 Noroeste 13 Noroeste 0 -- -- 75
2019-10-12 03:00:00 17.3 10 Noroeste 13 Noroeste 0 -- -- 79
2019-10-12 02:00:00 18.5 2 Oeste 10 Este 0 -- -- 84
2019-10-12 01:00:00 18.7 5 Este 16 Este 0 -- -- 86
2019-10-12 00:00:00 18.8 7 Este 14 Este 0 -- -- 89
2019-10-11 23:00:00 18.8 9 Este 15 Este 0 -- -- 90
2019-10-11 22:00:00 18.6 5 Oeste 7 Oeste 0 -- -- 90
2019-10-11 21:00:00 19.1 2 Sudeste 13 Este 0 -- -- 88
2019-10-11 20:00:00 19.3 9 Este 14 Este 0 -- -- 90
2019-10-11 19:00:00 19.7 7 Este 14 Nordeste 0 -- -- 87
2019-10-11 18:00:00 20 6 Este 13 Este 0 -- -- 83
2019-10-11 17:00:00 20.5 8 Este 18 Este 0 -- -- 79
2019-10-11 16:00:00 21.6 13 Este 22 Este 0 -- -- 72
2019-10-11 15:00:00 22.1 11 Nordeste 23 Nordeste 0 -- -- 68
2019-10-11 14:00:00 21.5 10 Este 21 Este 0 -- -- 74
2019-10-11 13:00:00 20.2 12 Nordeste 24 Este 0 -- -- 81
2019-10-11 12:00:00 23.7 13 Nordeste 22 Este 0 -- -- 63
2019-10-11 11:00:00 20.9 4 Nordeste 12 Sudeste 0 -- -- 67
2019-10-11 10:00:00 20.5 7 Sudeste 13 Sudeste 0 -- -- 75
2019-10-11 09:00:00 17.7 4 Noroeste 15 Noroeste 0 -- -- 77
2019-10-11 08:00:00 16.8 13 Noroeste 19 Noroeste 0 -- -- 72
2019-10-11 07:00:00 16.6 12 Noroeste 18 Noroeste 0 -- -- 74
2019-10-11 06:00:00 16.4 11 Noroeste 13 Noroeste 0 -- -- 82
2019-10-11 05:00:00 17 5 Sudoeste 10 Oeste 0 -- -- 83
2019-10-11 04:00:00 17.2 7 Oeste 10 Oeste 0 -- -- 88
2019-10-11 03:00:00 18.3 5 Sur 9 Sudoeste 0.2 -- -- 93
2019-10-11 02:00:00 18.1 8 Nordeste 11 Este 0.2 -- -- 94
2019-10-11 01:00:00 18.1 4 Oeste 19 Nordeste 0 -- -- 91
2019-10-11 00:00:00 18.4 10 Nordeste 24 Nordeste 0 -- -- 94
2019-10-10 23:00:00 18.4 8 Nordeste 19 Nordeste 0 -- -- 94
2019-10-10 22:00:00 18.4 13 Nordeste 22 Nordeste 0.2 -- -- 94
2019-10-10 21:00:00 18.5 10 Nordeste 19 Nordeste 0.2 -- -- 93
2019-10-10 20:00:00 18.6 10 Nordeste 21 Nordeste 0 -- -- 92
2019-10-10 19:00:00 19.1 9 Nordeste 22 Nordeste 0 -- -- 91
2019-10-10 18:00:00 20.1 11 Nordeste 25 Nordeste 0 -- -- 84
2019-10-10 17:00:00 21 15 Nordeste 27 Este 0 -- -- 80
2019-10-10 16:00:00 21.2 15 Nordeste 30 Este 0 -- -- 76
2019-10-10 15:00:00 21.9 18 Nordeste 33 Este 0 -- -- 72
2019-10-10 14:00:00 22.2 17 Nordeste 34 Nordeste 0 -- -- 70
2019-10-10 13:00:00 23 20 Nordeste 33 Este 0 -- -- 64
2019-10-10 12:00:00 22.5 20 Nordeste 35 Este 0 -- -- 70
2019-10-10 11:00:00 21.5 22 Nordeste 33 Este 0 -- -- 73
2019-10-10 10:00:00 21.1 16 Nordeste 27 Nordeste 0 -- -- 70
2019-10-10 09:00:00 19.1 9 Norte 19 Norte 0 -- -- 71
2019-10-10 08:00:00 17.2 8 Norte 19 Nordeste 0 -- -- 76
2019-10-10 07:00:00 17.6 11 Norte 20 Nordeste 0 -- -- 79
2019-10-10 06:00:00 17.3 11 Norte 18 Norte 0 -- -- 80
2019-10-10 05:00:00 17.2 9 Norte 18 Norte 0 -- -- 76
2019-10-10 04:00:00 17.5 10 Norte 18 Norte 0 -- -- 76
2019-10-10 03:00:00 17.5 8 Norte 18 Norte 0 -- -- 79
2019-10-10 02:00:00 17.8 10 Norte 22 Norte 0 -- -- 83
2019-10-10 01:00:00 17.6 11 Norte 18 Norte 0 -- -- 78
2019-10-10 00:00:00 17.7 6 Norte 19 Norte 0 -- -- 81
2019-10-09 23:00:00 17.9 10 Norte 18 Nordeste 0 -- -- 80
2019-10-09 22:00:00 18.4 12 Nordeste 23 Nordeste 0 -- -- 78
2019-10-09 21:00:00 18.7 11 Nordeste 21 Nordeste 0 -- -- 80
2019-10-09 20:00:00 19.4 14 Nordeste 26 Nordeste 0 -- -- 81
2019-10-09 19:00:00 20.1 18 Nordeste 35 Este 0 -- -- 77
2019-10-09 18:00:00 21.2 22 Nordeste 38 Este 0 -- -- 73
2019-10-09 17:00:00 22.8 21 Nordeste 36 Este 0 -- -- 67
2019-10-09 16:00:00 23.1 22 Nordeste 36 Este 0 -- -- 65
2019-10-09 15:00:00 23.3 23 Nordeste 39 Este 0 -- -- 64
2019-10-09 14:00:00 23.7 22 Nordeste 36 Este 0 -- -- 63
2019-10-09 13:00:00 23.4 24 Nordeste 36 Nordeste 0 -- -- 64
2019-10-09 12:00:00 22.5 21 Nordeste 35 Nordeste 0 -- -- 67
2019-10-09 11:00:00 21.7 23 Nordeste 35 Nordeste 0 -- -- 69
2019-10-09 10:00:00 20.4 18 Nordeste 31 Nordeste 0 -- -- 71
2019-10-09 09:00:00 18.2 13 Nordeste 19 Nordeste 0 -- -- 80
2019-10-09 08:00:00 16.4 9 Norte 19 Norte 0 -- -- 82
2019-10-09 07:00:00 16.6 10 Norte 21 Norte 0 -- -- 83
2019-10-09 06:00:00 16.7 11 Norte 22 Nordeste 0 -- -- 82
2019-10-09 05:00:00 16.6 9 Nordeste 14 Norte 0 -- -- 80
2019-10-09 04:00:00 16.9 10 Norte 14 Norte 0 -- -- 80
2019-10-09 03:00:00 16.9 9 Norte 14 Nordeste 0 -- -- 85
2019-10-09 02:00:00 17.1 8 Norte 17 Nordeste 0 -- -- 87
2019-10-09 01:00:00 17.1 10 Norte 17 Nordeste 0 -- -- 88
2019-10-09 00:00:00 17.3 6 Noroeste 11 Noroeste 0 -- -- 90
2019-10-08 23:00:00 17.6 5 Noroeste 9 Norte 0 -- -- 91
2019-10-08 22:00:00 18 5 Norte 9 Norte 0 -- -- 90
2019-10-08 21:00:00 18.5 6 Nordeste 15 Nordeste 0 -- -- 88
2019-10-08 20:00:00 19.1 10 Nordeste 20 Nordeste 0 -- -- 88
2019-10-08 19:00:00 20.4 11 Nordeste 22 Este 0 -- -- 81
2019-10-08 18:00:00 21.3 15 Nordeste 28 Este 0 -- -- 76
2019-10-08 17:00:00 22.6 17 Nordeste 34 Nordeste 0 -- -- 72
2019-10-08 16:00:00 22.8 21 Nordeste 33 Nordeste 0 -- -- 71
2019-10-08 15:00:00 23.8 20 Nordeste 33 Nordeste 0 -- -- 68
2019-10-08 14:00:00 24.3 17 Nordeste 30 Nordeste 0 -- -- 65
2019-10-08 13:00:00 23.9 19 Nordeste 31 Este 0 -- -- 66
2019-10-08 12:00:00 23.3 19 Nordeste 31 Nordeste 0 -- -- 69
2019-10-08 11:00:00 22.3 15 Nordeste 24 Nordeste 0 -- -- 70
2019-10-08 10:00:00 20.5 13 Nordeste 22 Nordeste 0 -- -- 78
2019-10-08 09:00:00 17.9 7 Norte 13 Norte 0 -- -- 88
2019-10-08 08:00:00 17 10 Norte 21 Norte 0 -- -- 91
2019-10-08 07:00:00 16.9 8 Norte 14 Norte 0 -- -- 90
2019-10-08 06:00:00 17.2 9 Norte 20 Nordeste 0 -- -- 92
2019-10-08 05:00:00 17.3 11 Norte 18 Norte 0 -- -- 90
2019-10-08 04:00:00 17.2 9 Norte 18 Norte 0 -- -- 89
2019-10-08 03:00:00 17.4 9 Norte 15 Nordeste 0 -- -- 90
2019-10-08 02:00:00 17.6 11 Nordeste 19 Norte 0 -- -- 90
2019-10-08 01:00:00 17.6 10 Nordeste 18 Norte 0 -- -- 91
2019-10-08 00:00:00 17.9 9 Nordeste 14 Norte 0 -- -- 91
2019-10-07 23:00:00 18.1 8 Norte 16 Nordeste 0 -- -- 90
2019-10-07 22:00:00 18.9 9 Nordeste 20 Nordeste 0 -- -- 88
2019-10-07 21:00:00 19 13 Nordeste 21 Nordeste 0 -- -- 90
2019-10-07 20:00:00 19.2 15 Nordeste 24 Nordeste 0 -- -- 88
2019-10-07 19:00:00 20.2 18 Nordeste 28 Nordeste 0 -- -- 82
2019-10-07 18:00:00 21.8 16 Nordeste 30 Este 0 -- -- 78
2019-10-07 17:00:00 22.8 18 Nordeste 28 Nordeste 0 -- -- 72
2019-10-07 16:00:00 23.5 20 Nordeste 34 Nordeste 0 -- -- 67
2019-10-07 15:00:00 24 21 Nordeste 33 Este 0 -- -- 65
2019-10-07 14:00:00 24 19 Nordeste 30 Nordeste 0 -- -- 65
2019-10-07 13:00:00 23.7 19 Nordeste 32 Nordeste 0 -- -- 66
2019-10-07 12:00:00 22.7 20 Nordeste 35 Nordeste 0 -- -- 68
2019-10-07 11:00:00 21.6 21 Nordeste 31 Nordeste 0 -- -- 73
2019-10-07 10:00:00 20 20 Nordeste 31 Nordeste 0 -- -- 80
2019-10-07 09:00:00 18 11 Nordeste 19 Nordeste 0 -- -- 84
2019-10-07 08:00:00 17 12 Nordeste 26 Nordeste 0 -- -- 87
2019-10-07 07:00:00 16.9 12 Nordeste 25 Nordeste 0 -- -- 88
2019-10-07 06:00:00 17 14 Nordeste 26 Nordeste 0 -- -- 88
2019-10-07 05:00:00 16.8 12 Nordeste 22 Nordeste 0 -- -- 88
2019-10-07 04:00:00 17 13 Nordeste 24 Nordeste 0 -- -- 89
2019-10-07 03:00:00 17.1 18 Nordeste 30 Nordeste 0 -- -- 90
2019-10-07 02:00:00 17.3 16 Nordeste 27 Nordeste 0 -- -- 88
2019-10-07 01:00:00 17.6 19 Nordeste 34 Nordeste 0 -- -- 86
2019-10-07 00:00:00 17.9 18 Nordeste 27 Nordeste 0 -- -- 88
2019-10-06 23:00:00 18.1 16 Nordeste 30 Nordeste 0 -- -- 87
2019-10-06 22:00:00 18.3 18 Nordeste 35 Nordeste 0 -- -- 82
2019-10-06 21:00:00 18.7 21 Nordeste 33 Nordeste 0 -- -- 83
2019-10-06 20:00:00 19.2 21 Nordeste 42 Nordeste 0 -- -- 85
2019-10-06 19:00:00 20 26 Nordeste 42 Nordeste 0 -- -- 79
2019-10-06 18:00:00 21.2 23 Nordeste 46 Nordeste 0 -- -- 72
2019-10-06 17:00:00 21.1 27 Nordeste 48 Nordeste 0 -- -- 76
2019-10-06 16:00:00 22.8 27 Nordeste 46 Este 0 -- -- 65
2019-10-06 15:00:00 22.7 28 Nordeste 46 Nordeste 0 -- -- 68
2019-10-06 14:00:00 22.8 27 Nordeste 45 Nordeste 0 -- -- 68
2019-10-06 13:00:00 23 25 Nordeste 42 Nordeste 0 -- -- 69
2019-10-06 12:00:00 22.7 24 Nordeste 44 Nordeste 0 -- -- 67
2019-10-06 11:00:00 22 21 Nordeste 41 Nordeste 0 -- -- 70
2019-10-06 10:00:00 20.5 26 Nordeste 44 Nordeste 0 -- -- 77
2019-10-06 09:00:00 18.8 20 Nordeste 37 Nordeste 0 -- -- 80
2019-10-06 08:00:00 18 17 Nordeste 35 Nordeste 0 -- -- 84
2019-10-06 07:00:00 18.1 22 Nordeste 42 Nordeste 0 -- -- 84
2019-10-06 06:00:00 18.2 27 Nordeste 42 Nordeste 0 -- -- 86
2019-10-06 05:00:00 18.1 28 Nordeste 44 Nordeste 0 -- -- 88
2019-10-06 04:00:00 18.4 29 Nordeste 45 Nordeste 0 -- -- 88
2019-10-06 03:00:00 18.6 25 Nordeste 39 Nordeste 0 -- -- 83
2019-10-06 02:00:00 18.4 23 Nordeste 39 Nordeste 0 -- -- 87
2019-10-06 01:00:00 18.5 23 Nordeste 41 Nordeste 0 -- -- 88
2019-10-06 00:00:00 18.7 18 Nordeste 36 Nordeste 0 -- -- 88
2019-10-05 23:00:00 18.8 18 Nordeste 40 Nordeste 0 -- -- 87
2019-10-05 22:00:00 19.1 23 Nordeste 40 Nordeste 0 -- -- 85
2019-10-05 21:00:00 19.4 21 Nordeste 39 Nordeste 0 -- -- 84
2019-10-05 20:00:00 19.9 21 Nordeste 41 Nordeste 0 -- -- 87
2019-10-05 19:00:00 21.2 22 Nordeste 43 Nordeste 0 -- -- 85
2019-10-05 18:00:00 22.2 27 Nordeste 46 Nordeste 0 -- -- 80
2019-10-05 17:00:00 23.3 28 Nordeste 45 Nordeste 0 -- -- 75
2019-10-05 16:00:00 24.5 28 Nordeste 49 Nordeste 0 -- -- 68
2019-10-05 15:00:00 24.2 30 Nordeste 51 Este 0 -- -- 71
2019-10-05 14:00:00 24.7 30 Nordeste 48 Nordeste 0 -- -- 69
2019-10-05 13:00:00 23.7 33 Nordeste 54 Nordeste 0 -- -- 72
2019-10-05 12:00:00 23.2 31 Nordeste 52 Este 0 -- -- 74
2019-10-05 11:00:00 22.9 31 Nordeste 50 Nordeste 0 -- -- 74
2019-10-05 10:00:00 21.8 28 Nordeste 55 Nordeste 0 -- -- 80
2019-10-05 09:00:00 20.4 27 Nordeste 53 Nordeste 0 -- -- 81
2019-10-05 08:00:00 19.2 24 Nordeste 38 Nordeste 0 -- -- 83
2019-10-05 07:00:00 19.1 25 Nordeste 43 Nordeste 0 -- -- 83
2019-10-05 06:00:00 18.5 21 Nordeste 32 Nordeste 0 -- -- 85
2019-10-05 05:00:00 18.1 17 Nordeste 28 Nordeste 0 -- -- 87
2019-10-05 04:00:00 18.2 10 Nordeste 27 Nordeste 0 -- -- 90
2019-10-05 03:00:00 18.4 15 Nordeste 25 Nordeste 0 -- -- 90
2019-10-05 02:00:00 18.2 9 Nordeste 15 Nordeste 0 -- -- 91
2019-10-05 01:00:00 17.9 6 Norte 12 Norte 0 -- -- 89
2019-10-05 00:00:00 18.1 5 Norte 10 Nordeste 0 -- -- 89
2019-10-04 23:00:00 18.4 6 Nordeste 14 Este 0 -- -- 88
2019-10-04 22:00:00 18.7 6 Nordeste 15 Nordeste 0 -- -- 89
2019-10-04 21:00:00 19.3 13 Nordeste 26 Nordeste 0 -- -- 89
2019-10-04 20:00:00 19.9 15 Nordeste 26 Nordeste 0 -- -- 86
2019-10-04 19:00:00 21.2 17 Nordeste 28 Este 0 -- -- 80
2019-10-04 18:00:00 22.9 20 Nordeste 31 Nordeste 0 -- -- 73
2019-10-04 17:00:00 24.1 18 Nordeste 35 Nordeste 0 -- -- 68
2019-10-04 16:00:00 24.4 22 Nordeste 36 Nordeste 0 -- -- 66
2019-10-04 15:00:00 24.1 23 Nordeste 41 Nordeste 0 -- -- 70
2019-10-04 14:00:00 24.9 20 Nordeste 37 Nordeste 0 -- -- 64
2019-10-04 13:00:00 24.5 21 Nordeste 41 Nordeste 0 -- -- 68
2019-10-04 12:00:00 23.6 24 Nordeste 40 Nordeste 0 -- -- 72
2019-10-04 11:00:00 22.4 24 Nordeste 36 Este 0 -- -- 77
2019-10-04 10:00:00 19.9 14 Nordeste 23 Nordeste 0 -- -- 88
2019-10-04 09:00:00 18.9 9 Nordeste 20 Nordeste 0 -- -- 91
2019-10-04 08:00:00 18.4 6 Norte 22 Este 0 -- -- 93
2019-10-04 07:00:00 18.4 9 Nordeste 17 Nordeste 0 -- -- 93
2019-10-04 06:00:00 18.1 4 Norte 10 Noroeste 0 -- -- 92
2019-10-04 05:00:00 18.4 5 Noroeste 15 Nordeste 0 -- -- 94
2019-10-04 04:00:00 19 10 Nordeste 17 Nordeste 0 -- -- 95
2019-10-04 03:00:00 18.9 6 Nordeste 17 Nordeste 0 -- -- 95
2019-10-04 02:00:00 19.1 9 Nordeste 24 Nordeste 0 -- -- 94
2019-10-04 01:00:00 19.2 9 Nordeste 14 Norte 0 -- -- 94
2019-10-04 00:00:00 19 9 Nordeste 21 Nordeste 0 -- -- 94
2019-10-03 23:00:00 19.2 11 Nordeste 22 Nordeste 0 -- -- 94
2019-10-03 22:00:00 19.5 13 Nordeste 22 Nordeste 0 -- -- 93
2019-10-03 21:00:00 19.8 15 Nordeste 29 Nordeste 0 -- -- 92
2019-10-03 20:00:00 20 17 Nordeste 26 Nordeste 0 -- -- 91
2019-10-03 19:00:00 20.5 16 Nordeste 27 Nordeste 0 -- -- 88
2019-10-03 18:00:00 21.5 20 Nordeste 31 Nordeste 0 -- -- 83
2019-10-03 17:00:00 23.2 19 Nordeste 28 Este 0 -- -- 77
2019-10-03 16:00:00 24.2 19 Nordeste 34 Nordeste 0 -- -- 73
2019-10-03 15:00:00 24.9 22 Nordeste 32 Nordeste 0 -- -- 69
2019-10-03 14:00:00 25.3 20 Nordeste 31 Nordeste 0 -- -- 69
2019-10-03 13:00:00 26.1 17 Nordeste 27 Nordeste 0 -- -- 65
2019-10-03 12:00:00 25.1 15 Nordeste 27 Nordeste 0 -- -- 70
2019-10-03 11:00:00 24.6 13 Nordeste 24 Este 0 -- -- 72
2019-10-03 10:00:00 24 16 Nordeste 31 Nordeste 0 -- -- 69
2019-10-03 09:00:00 22.6 8 Nordeste 17 Nordeste 0 -- -- 55
2019-10-03 08:00:00 20.9 5 Norte 16 Norte 0 -- -- 54
2019-10-03 07:00:00 21.5 6 Norte 13 Norte 0 -- -- 45
2019-10-03 06:00:00 21.7 6 Nordeste 15 Nordeste 0 -- -- 47
2019-10-03 05:00:00 21.5 8 Nordeste 15 Nordeste 0 -- -- 50
2019-10-03 04:00:00 21.9 8 Nordeste 17 Nordeste 0 -- -- 48
2019-10-03 03:00:00 22 8 Nordeste 25 Nordeste 0 -- -- 49
2019-10-03 02:00:00 20.8 11 Nordeste 28 Nordeste 0 -- -- 56
2019-10-03 01:00:00 19.6 3 Nordeste 8 Norte 0 -- -- 90
2019-10-03 00:00:00 20.5 8 Norte 11 Nordeste 0 -- -- 82
2019-10-02 23:00:00 23.7 3 Este 8 Nordeste 0 -- -- 41
2019-10-02 22:00:00 25.5 4 Norte 9 Norte 0 -- -- 32
2019-10-02 21:00:00 28.3 4 Nordeste 15 Nordeste 0 -- -- 17
2019-10-02 20:00:00 28 5 Nordeste 16 Norte 0 -- -- 25
2019-10-02 19:00:00 28.3 8 Nordeste 14 Norte 0 -- -- 40
2019-10-02 18:00:00 29.3 3 Este 10 Nordeste 0 -- -- 55
2019-10-02 17:00:00 31 8 Nordeste 23 Nordeste 0 -- -- 48
2019-10-02 16:00:00 32.4 16 Nordeste 27 Nordeste 0 -- -- 26
2019-10-02 15:00:00 32.6 14 Nordeste 31 Nordeste 0 -- -- 24
2019-10-02 14:00:00 34 17 Nordeste 28 Nordeste 0 -- -- 14
2019-10-02 13:00:00 33.8 17 Nordeste 31 Nordeste 0 -- -- 14
2019-10-02 12:00:00 31.4 16 Nordeste 29 Nordeste 0 -- -- 23
2019-10-02 11:00:00 29.5 13 Nordeste 19 Este 0 -- -- 32
2019-10-02 10:00:00 26.4 12 Nordeste 24 Nordeste 0 -- -- 42
2019-10-02 09:00:00 22.6 13 Nordeste 19 Norte 0 -- -- 52
2019-10-02 08:00:00 19.1 4 Norte 13 Nordeste 0 -- -- 85
2019-10-02 07:00:00 19.8 6 Norte 14 Norte 0 -- -- 64
2019-10-02 06:00:00 20.6 7 Norte 15 Nordeste 0 -- -- 60
2019-10-02 05:00:00 20.6 7 Norte 22 Norte 0 -- -- 78
2019-10-02 04:00:00 23.7 10 Norte 19 Nordeste 0 -- -- 42
2019-10-02 03:00:00 24 9 Norte 22 Nordeste 0 -- -- 30
2019-10-02 02:00:00 23.8 9 Norte 19 Nordeste 0 -- -- 31
2019-10-02 01:00:00 22.9 8 Norte 14 Norte 0 -- -- 34
2019-10-02 00:00:00 23.7 5 Norte 13 Norte 0 -- -- 31
2019-10-01 23:00:00 24.7 9 Nordeste 19 Nordeste 0 -- -- 30
2019-10-01 22:00:00 24.9 9 Norte 19 Nordeste 0 -- -- 29
2019-10-01 21:00:00 24.5 5 Norte 11 Nordeste 0 -- -- 32
2019-10-01 20:00:00 25.1 5 Norte 21 Nordeste 0 -- -- 34
2019-10-01 19:00:00 26.7 12 Nordeste 24 Nordeste 0 -- -- 37
2019-10-01 18:00:00 28.2 14 Nordeste 25 Nordeste 0 -- -- 43
2019-10-01 17:00:00 28.4 15 Nordeste 24 Este 0 -- -- 51
2019-10-01 16:00:00 27.5 18 Nordeste 28 Nordeste 0 -- -- 56
2019-10-01 15:00:00 28.8 19 Este 31 Nordeste 0 -- -- 48
2019-10-01 14:00:00 29.5 19 Nordeste 31 Nordeste 0 -- -- 38
2019-10-01 13:00:00 30.9 18 Nordeste 32 Nordeste 0 -- -- 35
2019-10-01 12:00:00 31.9 17 Nordeste 31 Nordeste 0 -- -- 28
2019-10-01 11:00:00 31.9 18 Nordeste 31 Nordeste 0 -- -- 19
2019-10-01 10:00:00 28.8 17 Nordeste 27 Nordeste 0 -- -- 29
2019-10-01 09:00:00 24.8 7 Norte 26 Nordeste 0 -- -- 30
2019-10-01 08:00:00 23.9 14 Nordeste 25 Nordeste 0 -- -- 25
2019-10-01 07:00:00 24.1 14 Nordeste 26 Nordeste 0 -- -- 26
2019-10-01 06:00:00 23.9 13 Nordeste 23 Nordeste 0 -- -- 26
2019-10-01 05:00:00 24.3 13 Nordeste 23 Nordeste 0 -- -- 24
2019-10-01 04:00:00 24.1 10 Nordeste 21 Nordeste 0 -- -- 24
2019-10-01 03:00:00 23.4 9 Nordeste 26 Nordeste 0 -- -- 27
2019-10-01 02:00:00 22.6 13 Nordeste 22 Norte 0 -- -- 37
2019-10-01 01:00:00 21.8 14 Nordeste 23 Nordeste 0 -- -- 50
2019-10-01 00:00:00 19.5 6 Norte 13 Nordeste 0 -- -- 83
2019-09-30 23:00:00 19.7 8 Norte 16 Norte 0 -- -- 86
2019-09-30 22:00:00 20 8 Nordeste 11 Nordeste 0 -- -- 86
2019-09-30 21:00:00 21.1 4 Nordeste 7 Nordeste 0 -- -- 83
2019-09-30 20:00:00 22.5 5 Este 16 Nordeste 0 -- -- 77
2019-09-30 19:00:00 25.6 5 Nordeste 18 Sudeste 0 -- -- 68
2019-09-30 18:00:00 28.9 5 Este 12 Nordeste 0 -- -- 54
2019-09-30 17:00:00 27.9 7 Nordeste 14 Sudeste 0 -- -- 59
2019-09-30 16:00:00 28.3 9 Este 17 Este 0 -- -- 58
2019-09-30 15:00:00 28.7 12 Este 18 Este 0 -- -- 55
2019-09-30 14:00:00 28.8 12 Nordeste 18 Este 0 -- -- 56
2019-09-30 13:00:00 29.6 11 Nordeste 22 Nordeste 0 -- -- 45
2019-09-30 12:00:00 26.3 9 Nordeste 17 Este 0 -- -- 63
2019-09-30 11:00:00 26.2 6 Nordeste 13 Nordeste 0 -- -- 57
2019-09-30 10:00:00 22.9 4 Nordeste 17 Nordeste 0 -- -- 66
2019-09-30 09:00:00 21.8 9 Noroeste 22 Nordeste 0 -- -- 47
2019-09-30 08:00:00 21.3 10 Nordeste 16 Nordeste 0 -- -- 54
2019-09-30 07:00:00 21.8 8 Norte 17 Noroeste 0 -- -- 39
2019-09-30 06:00:00 22 7 Nordeste 21 Norte 0 -- -- 69
2019-09-30 05:00:00 18.5 4 Norte 11 Nordeste 0 -- -- 90
2019-09-30 04:00:00 18.5 6 Norte 17 Nordeste 0 -- -- 94
2019-09-30 03:00:00 19 15 Nordeste 27 Nordeste 0 -- -- 94
2019-09-30 02:00:00 19.3 13 Nordeste 21 Nordeste 0 -- -- 95
2019-09-30 01:00:00 18.8 7 Norte 13 Norte 0 -- -- 95
2019-09-30 00:00:00 19.2 8 Norte 13 Norte 0 -- -- 95
2019-09-29 23:00:00 19.4 6 Nordeste 12 Norte 0 -- -- 95
2019-09-29 22:00:00 19.3 7 Norte 10 Norte 0 -- -- 93
2019-09-29 21:00:00 19.8 6 Nordeste 10 Nordeste 0 -- -- 91
2019-09-29 20:00:00 20.4 6 Nordeste 18 Nordeste 0 -- -- 88
2019-09-29 19:00:00 22 10 Nordeste 20 Nordeste 0 -- -- 81
2019-09-29 18:00:00 23.5 12 Nordeste 19 Nordeste 0 -- -- 74
2019-09-29 17:00:00 24.5 16 Nordeste 21 Este 0 -- -- 71
2019-09-29 16:00:00 25.6 12 Nordeste 22 Nordeste 0 -- -- 67
2019-09-29 15:00:00 24.9 17 Nordeste 25 Nordeste 0 -- -- 69
2019-09-29 14:00:00 26 13 Nordeste 23 Este 0 -- -- 64
2019-09-29 13:00:00 24.8 17 Nordeste 26 Nordeste 0 -- -- 67
2019-09-29 12:00:00 23 18 Nordeste 30 Nordeste 0 -- -- 73
2019-09-29 11:00:00 22 18 Nordeste 28 Nordeste 0 -- -- 76
2019-09-29 10:00:00 21.2 12 Nordeste 27 Nordeste 0 -- -- 81
2019-09-29 09:00:00 18.6 14 Nordeste 24 Nordeste 0 -- -- 91
2019-09-29 08:00:00 17.8 13 Nordeste 21 Nordeste 0 -- -- 93
2019-09-29 07:00:00 17.7 9 Norte 18 Nordeste 0 -- -- 93
2019-09-29 06:00:00 17.6 11 Norte 17 Norte 0 -- -- 93
2019-09-29 05:00:00 17.7 10 Norte 16 Norte 0 -- -- 92
2019-09-29 04:00:00 17.9 9 Norte 18 Nordeste 0 -- -- 93
2019-09-29 03:00:00 17.9 11 Norte 18 Nordeste 0 -- -- 92
2019-09-29 02:00:00 18 8 Norte 14 Norte 0 -- -- 92
2019-09-29 01:00:00 17.9 8 Norte 13 Norte 0 -- -- 91
2019-09-29 00:00:00 17.9 7 Norte 11 Norte 0 -- -- 90
2019-09-28 23:00:00 18.3 5 Nordeste 18 Nordeste 0 -- -- 90
2019-09-28 22:00:00 18.7 10 Nordeste 23 Nordeste 0 -- -- 89
2019-09-28 21:00:00 19.2 17 Nordeste 31 Nordeste 0 -- -- 87
2019-09-28 20:00:00 19.7 19 Nordeste 32 Nordeste 0 -- -- 88
2019-09-28 19:00:00 20.7 17 Nordeste 28 Nordeste 0 -- -- 80
2019-09-28 18:00:00 22 16 Nordeste 27 Nordeste 0 -- -- 74
2019-09-28 17:00:00 22.8 16 Nordeste 32 Este 0 -- -- 72
2019-09-28 16:00:00 23.4 17 Este 46 Este 0 -- -- 68
2019-09-28 15:00:00 24 21 Nordeste 35 Este 0 -- -- 67
2019-09-28 14:00:00 23.6 23 Nordeste 40 Nordeste 0 -- -- 67
2019-09-28 13:00:00 23.7 24 Nordeste 38 Nordeste 0 -- -- 66
2019-09-28 12:00:00 23.3 21 Nordeste 32 Nordeste 0 -- -- 68
2019-09-28 11:00:00 22.2 19 Nordeste 32 Este 0 -- -- 73
2019-09-28 10:00:00 20.9 16 Nordeste 28 Nordeste 0 -- -- 76
2019-09-28 09:00:00 18.7 14 Nordeste 25 Nordeste 0 -- -- 83
2019-09-28 08:00:00 17.3 12 Nordeste 19 Nordeste 0 -- -- 87
2019-09-28 07:00:00 17.3 9 Norte 20 Nordeste 0 -- -- 87
2019-09-28 06:00:00 17.5 8 Norte 18 Norte 0 -- -- 86
2019-09-28 05:00:00 17.4 10 Norte 17 Norte 0 -- -- 86
2019-09-28 04:00:00 17.9 11 Nordeste 23 Nordeste 0 -- -- 88
2019-09-28 03:00:00 17.6 9 Norte 18 Nordeste 0 -- -- 87
2019-09-28 02:00:00 17.9 10 Norte 25 Nordeste 0 -- -- 87
2019-09-28 01:00:00 18.9 15 Nordeste 30 Nordeste 0 -- -- 87
2019-09-28 00:00:00 19.1 18 Nordeste 32 Nordeste 0 -- -- 88
2019-09-27 23:00:00 19.2 22 Nordeste 32 Nordeste 0 -- -- 89
2019-09-27 22:00:00 19.3 20 Nordeste 31 Nordeste 0 -- -- 88
2019-09-27 21:00:00 19.5 16 Nordeste 33 Nordeste 0 -- -- 87
2019-09-27 20:00:00 19.8 18 Nordeste 33 Nordeste 0 -- -- 87
2019-09-27 19:00:00 20.1 19 Nordeste 35 Nordeste 0 -- -- 86
2019-09-27 18:00:00 21.1 21 Nordeste 34 Nordeste 0 -- -- 80
2019-09-27 17:00:00 22.9 22 Nordeste 40 Nordeste 0 -- -- 71
2019-09-27 16:00:00 23.8 23 Nordeste 43 Este 0 -- -- 69
2019-09-27 15:00:00 24.2 19 Nordeste 37 Nordeste 0 -- -- 66
2019-09-27 14:00:00 23.6 23 Nordeste 36 Nordeste 0 -- -- 66
2019-09-27 13:00:00 23.3 22 Nordeste 37 Este 0 -- -- 71
2019-09-27 12:00:00 23 24 Nordeste 36 Norte -- -- -- 72
2019-09-27 11:00:00 21.6 20 Nordeste 37 Nordeste -- -- -- 77
2019-09-27 10:00:00 20.4 23 Nordeste 36 Nordeste 0 -- -- 80
2019-09-27 09:00:00 19.2 15 Nordeste 26 Nordeste 0 -- -- 79
2019-09-27 08:00:00 18.3 14 Norte 23 Nordeste 0 -- -- 85
2019-09-27 07:00:00 17.7 10 Norte 16 Nordeste 0 -- -- 83
2019-09-27 06:00:00 17.7 12 Norte 19 Nordeste 0 -- -- 82
2019-09-27 05:00:00 17.6 11 Norte 21 Nordeste 0 -- -- 82
2019-09-27 04:00:00 17.7 11 Norte 18 Nordeste 0 -- -- 82
2019-09-27 03:00:00 18 11 Norte 21 Nordeste 0 -- -- 83
2019-09-27 02:00:00 18 10 Norte 22 Norte 0 -- -- 83
2019-09-27 01:00:00 18.1 10 Nordeste 24 Nordeste 0 -- -- 86
2019-09-27 00:00:00 18.8 14 Nordeste 30 Nordeste 0 -- -- 86
2019-09-26 23:00:00 19.1 14 Nordeste 26 Nordeste 0 -- -- 86
2019-09-26 22:00:00 18.9 13 Nordeste 23 Nordeste 0 -- -- 87
2019-09-26 21:00:00 19.4 17 Nordeste 31 Nordeste 0 -- -- 81
2019-09-26 20:00:00 19.9 17 Nordeste 34 Nordeste 0 -- -- 80
2019-09-26 19:00:00 21.1 17 Nordeste 33 Nordeste 0 -- -- 76
2019-09-26 18:00:00 22.2 23 Nordeste 35 Nordeste 0 -- -- 72
2019-09-26 17:00:00 23.1 22 Nordeste 41 Nordeste 0 -- -- 70
2019-09-26 16:00:00 23.4 25 Nordeste 42 Nordeste 0 -- -- 67
2019-09-26 15:00:00 23.4 26 Nordeste 42 Este 0 -- -- 68
2019-09-26 14:00:00 23.4 28 Nordeste 50 Este 0 -- -- 69
2019-09-26 13:00:00 22.5 26 Nordeste 43 Nordeste 0 -- -- 74
2019-09-26 12:00:00 22.5 24 Nordeste 40 Nordeste 0 -- -- 77
2019-09-26 11:00:00 22.9 21 Nordeste 37 Este 0 -- -- 73
2019-09-26 10:00:00 19.9 21 Nordeste 33 Nordeste 0 -- -- 87
2019-09-26 09:00:00 20 13 Nordeste 27 Nordeste 0 -- -- 87
2019-09-26 08:00:00 19 12 Nordeste 31 Nordeste 0 -- -- 89
2019-09-26 07:00:00 19.1 17 Nordeste 35 Nordeste 0 -- -- 93
2019-09-26 06:00:00 18.9 19 Nordeste 29 Norte 0 -- -- 91
2019-09-26 05:00:00 17.7 8 Norte 21 Nordeste 0 -- -- 83
2019-09-26 04:00:00 17.8 8 Noroeste 15 Nordeste 0 -- -- 81
2019-09-26 03:00:00 18.1 12 Nordeste 20 Nordeste 0 -- -- 82
2019-09-26 02:00:00 18 9 Norte 26 Norte 0 -- -- 84
2019-09-26 01:00:00 18.4 14 Nordeste 33 Nordeste 0 -- -- 89
2019-09-26 00:00:00 18.6 13 Nordeste 21 Norte 0 -- -- 88
2019-09-25 23:00:00 18.7 11 Nordeste 26 Norte 0 -- -- 86
2019-09-25 22:00:00 19 17 Nordeste 28 Nordeste 0 -- -- 86
2019-09-25 21:00:00 19.3 19 Nordeste 31 Nordeste 0 -- -- 87
2019-09-25 20:00:00 19.7 17 Nordeste 33 Nordeste 0 -- -- 85
2019-09-25 19:00:00 21 22 Nordeste 39 Nordeste 0 -- -- 81
2019-09-25 18:00:00 22.3 23 Nordeste 44 Nordeste 0 -- -- 75
2019-09-25 17:00:00 23.1 26 Nordeste 45 Este 0 -- -- 70
2019-09-25 16:00:00 23.9 24 Nordeste 40 Nordeste 0 -- -- 67
2019-09-25 15:00:00 24.1 28 Nordeste 50 Nordeste 0 -- -- 66
2019-09-25 14:00:00 24.1 25 Nordeste 42 Este 0 -- -- 67
2019-09-25 13:00:00 23.7 26 Nordeste 49 Nordeste 0 -- -- 69
2019-09-25 12:00:00 23.4 22 Nordeste 40 Nordeste 0 -- -- 69
2019-09-25 11:00:00 22.8 21 Nordeste 39 Nordeste 0 -- -- 68
2019-09-25 10:00:00 21.4 21 Nordeste 37 Nordeste 0 -- -- 72
2019-09-25 09:00:00 19.4 15 Nordeste 26 Norte 0 -- -- 79
2019-09-25 08:00:00 17.1 9 Norte 18 Nordeste 0 -- -- 81
2019-09-25 07:00:00 16.8 6 Norte 15 Nordeste 0 -- -- 78
2019-09-25 06:00:00 17.1 8 Norte 19 Nordeste 0 -- -- 82
2019-09-25 05:00:00 17.1 10 Norte 20 Nordeste 0 -- -- 82
2019-09-25 04:00:00 17.1 9 Norte 18 Norte 0 -- -- 85
2019-09-25 03:00:00 17.5 12 Norte 20 Norte 0 -- -- 84
2019-09-25 02:00:00 17.5 10 Norte 19 Norte 0 -- -- 82
2019-09-25 01:00:00 17.5 10 Nordeste 23 Norte 0 -- -- 86
2019-09-25 00:00:00 17.7 10 Norte 22 Norte 0 -- -- 85
2019-09-24 23:00:00 18.2 14 Nordeste 24 Nordeste 0 -- -- 87
2019-09-24 22:00:00 19 17 Nordeste 30 Nordeste 0 -- -- 86
2019-09-24 21:00:00 19 17 Nordeste 34 Nordeste 0 -- -- 86
2019-09-24 20:00:00 19.3 21 Nordeste 39 Nordeste 0 -- -- 83
2019-09-24 19:00:00 20.5 22 Nordeste 38 Nordeste 0 -- -- 79
2019-09-24 18:00:00 21.8 22 Nordeste 40 Nordeste 0 -- -- 75
2019-09-24 17:00:00 22.1 27 Nordeste 40 Nordeste 0 -- -- 72
2019-09-24 16:00:00 22.4 27 Nordeste 46 Nordeste 0 -- -- 70
2019-09-24 15:00:00 22.6 25 Nordeste 41 Nordeste 0 -- -- 71
2019-09-24 14:00:00 22.5 25 Nordeste 48 Este 0 -- -- 72
2019-09-24 13:00:00 22.7 25 Nordeste 41 Nordeste 0 -- -- 72
2019-09-24 12:00:00 23.1 24 Nordeste 38 Nordeste 0 -- -- 74
2019-09-24 11:00:00 22.9 18 Nordeste 30 Nordeste 0 -- -- 65
2019-09-24 10:00:00 20.8 14 Nordeste 22 Este 0 -- -- 76
2019-09-24 09:00:00 18.5 4 Norte 10 Noroeste 0 -- -- 84
2019-09-24 08:00:00 18 6 Norte 25 Nordeste 0 -- -- 89
2019-09-24 07:00:00 17.8 12 Norte 19 Norte 0 -- -- 86
2019-09-24 06:00:00 17.6 12 Norte 20 Norte 0 -- -- 86
2019-09-24 05:00:00 17.3 11 Norte 19 Nordeste 0 -- -- 82
2019-09-24 04:00:00 17.3 10 Norte 17 Norte 0 -- -- 82
2019-09-24 03:00:00 17.4 9 Norte 20 Norte 0 -- -- 82
2019-09-24 02:00:00 17.6 10 Norte 18 Nordeste 0 -- -- 84
2019-09-24 01:00:00 17.8 12 Norte 21 Nordeste 0 -- -- 85
2019-09-24 00:00:00 18.2 13 Norte 21 Nordeste 0 -- -- 84
2019-09-23 23:00:00 18.2 14 Norte 25 Nordeste 0 -- -- 83
2019-09-23 22:00:00 18.6 14 Nordeste 32 Nordeste 0 -- -- 85
2019-09-23 21:00:00 19.1 21 Nordeste 35 Nordeste 0 -- -- 86
2019-09-23 20:00:00 19.5 22 Nordeste 39 Nordeste 0 -- -- 87
2019-09-23 19:00:00 19.8 21 Nordeste 33 Nordeste 0 -- -- 85
2019-09-23 18:00:00 20.6 21 Nordeste 33 Nordeste 0 -- -- 81
2019-09-23 17:00:00 21.3 21 Nordeste 34 Nordeste 0 -- -- 75
2019-09-23 16:00:00 21.6 21 Nordeste 34 Nordeste 0 -- -- 75
2019-09-23 15:00:00 20.8 21 Nordeste 34 Nordeste 0 -- -- 80
2019-09-23 14:00:00 20.5 22 Nordeste 43 Nordeste 0 -- -- 83
2019-09-23 13:00:00 20 18 Nordeste 32 Este 0 -- -- 86
2019-09-23 12:00:00 19.7 20 Nordeste 29 Nordeste 0 -- -- 88
2019-09-23 11:00:00 19.8 17 Nordeste 28 Nordeste 0 -- -- 90
2019-09-23 10:00:00 19.2 12 Nordeste 18 Nordeste 0 -- -- 91
2019-09-23 09:00:00 18.4 9 Norte 14 Norte 0 -- -- 91
2019-09-23 08:00:00 17.5 5 Norte 13 Norte 0 -- -- 92
2019-09-23 07:00:00 18.3 7 Norte 17 Nordeste 0 -- -- 93
2019-09-23 06:00:00 18.4 12 Nordeste 17 Nordeste 0 -- -- 94
2019-09-23 05:00:00 18.8 9 Nordeste 15 Nordeste 0 -- -- 96
2019-09-23 04:00:00 18.9 8 Nordeste 13 Nordeste 0 -- -- 97
2019-09-23 03:00:00 19 12 Nordeste 19 Nordeste 0 -- -- 97
2019-09-23 02:00:00 19.3 8 Nordeste 12 Nordeste 0 -- -- 98
2019-09-23 01:00:00 19.3 6 Nordeste 18 Nordeste 0 -- -- 98
2019-09-23 00:00:00 19.4 15 Nordeste 29 Nordeste 0.2 -- -- 98
2019-09-22 23:00:00 19.8 18 Nordeste 36 Nordeste 0.6 -- -- 98
2019-09-22 22:00:00 20 19 Nordeste 36 Nordeste 0 -- -- 98
2019-09-22 21:00:00 20.1 20 Nordeste 32 Nordeste 0.6 -- -- 97
2019-09-22 20:00:00 20.5 14 Nordeste 32 Nordeste 1.6 -- -- 97
2019-09-22 19:00:00 21.3 10 Nordeste 22 Nordeste 1.2 -- -- 96
2019-09-22 18:00:00 22.9 12 Este 20 Este 0 -- -- 86
2019-09-22 17:00:00 23.5 7 Sur 15 Sudeste 0 -- -- 81
2019-09-22 16:00:00 23.7 10 Este 24 Este 0 -- -- 76
2019-09-22 15:00:00 25.5 14 Este 24 Este 0 -- -- 69
2019-09-22 14:00:00 26.1 14 Este 24 Este 0 -- -- 67
2019-09-22 13:00:00 26.6 12 Nordeste 21 Este 0 -- -- 63
2019-09-22 12:00:00 26.6 10 Este 20 Este 0 -- -- 59
2019-09-22 11:00:00 25.2 7 Este 16 Este 0 -- -- 64
2019-09-22 10:00:00 23.4 6 Sudeste 10 Sudeste 0 -- -- 69
2019-09-22 09:00:00 20.7 3 Sur 8 Noroeste 0 -- -- 75
2019-09-22 08:00:00 18.4 4 Noroeste 9 Noroeste 0 -- -- 78
2019-09-22 07:00:00 18.1 9 Noroeste 11 Noroeste 0 -- -- 77
2019-09-22 06:00:00 18.4 5 Oeste 13 Noroeste 0 -- -- 78
2019-09-22 05:00:00 18 6 Noroeste 12 Oeste 0 -- -- 80
2019-09-22 04:00:00 18 6 Noroeste 11 Oeste 0 -- -- 84
2019-09-22 03:00:00 18.7 8 Noroeste 13 Noroeste 0 -- -- 85
2019-09-22 02:00:00 19.3 5 Noroeste 8 Noroeste 0 -- -- 85
2019-09-22 01:00:00 18.8 5 Noroeste 13 Oeste 0 -- -- 90
2019-09-22 00:00:00 19.4 2 Sur 4 Sudoeste 0 -- -- 90
2019-09-21 23:00:00 20 3 Oeste 5 Sur 0 -- -- 92
2019-09-21 22:00:00 19.8 4 Sur 8 Sudoeste 0 -- -- 90
2019-09-21 21:00:00 20.2 2 Sur 12 Sudoeste 0 -- -- 88
2019-09-21 20:00:00 20.8 8 Sudoeste 15 Sur 0 -- -- 85
2019-09-21 19:00:00 22.2 10 Sudoeste 15 Sudoeste 0 -- -- 78
2019-09-21 18:00:00 22.2 9 Sur 15 Sur 0 -- -- 79
2019-09-21 17:00:00 23.1 9 Sudeste 17 Sudeste 0 -- -- 74
2019-09-21 16:00:00 23.9 9 Sudeste 18 Sudeste 0 -- -- 71
2019-09-21 15:00:00 23.6 8 Sudeste 15 Sur 0 -- -- 72
2019-09-21 14:00:00 23.7 8 Sur 17 Sudeste 0 -- -- 70
2019-09-21 13:00:00 24.5 9 Sudeste 18 Este 0 -- -- 68
2019-09-21 12:00:00 24.5 9 Sudeste 18 Sudeste 0 -- -- 69
2019-09-21 11:00:00 23.3 8 Sur 14 Sudeste 0 -- -- 69
2019-09-21 10:00:00 21.5 4 Sudeste 10 Sudoeste 0 -- -- 73
2019-09-21 09:00:00 19.3 7 Sudoeste 13 Sudoeste 0 -- -- 87
2019-09-21 08:00:00 17.6 5 Oeste 14 Oeste 0 -- -- 78
2019-09-21 07:00:00 18.5 12 Oeste 15 Oeste 0 -- -- 82
2019-09-21 06:00:00 18.3 8 Oeste 13 Oeste 0 -- -- 84
2019-09-21 05:00:00 18.5 3 Oeste 8 Oeste 0 -- -- 85
2019-09-21 04:00:00 19.2 2 Sudeste 9 Este 0 -- -- 93
2019-09-21 03:00:00 19.3 4 Este 7 Este 0 -- -- 92
2019-09-21 02:00:00 19.5 6 Este 9 Este 0 -- -- 92
2019-09-21 01:00:00 19.4 3 Este 12 Nordeste 0 -- -- 91
2019-09-21 00:00:00 19.6 7 Este 12 Este 0 -- -- 92
2019-09-20 23:00:00 19.3 6 Nordeste 12 Este 0 -- -- 92
2019-09-20 22:00:00 19.9 2 Este 5 Este 0 -- -- 87
2019-09-20 21:00:00 20.1 4 Sudeste 15 Este 0 -- -- 87
2019-09-20 20:00:00 20.6 9 Este 16 Nordeste 0 -- -- 85
2019-09-20 19:00:00 21.3 12 Nordeste 22 Nordeste 0 -- -- 83
2019-09-20 18:00:00 22.6 19 Este 27 Este 0 -- -- 77
2019-09-20 17:00:00 22.5 14 Nordeste 26 Este 0 -- -- 77
2019-09-20 16:00:00 22.4 16 Nordeste 28 Este 0 -- -- 77
2019-09-20 15:00:00 23.6 16 Este 30 Nordeste 0 -- -- 71
2019-09-20 14:00:00 24 18 Nordeste 27 Nordeste 0 -- -- 68
2019-09-20 13:00:00 24.3 15 Este 24 Este 0 -- -- 67
2019-09-20 12:00:00 22.7 14 Nordeste 27 Este 0 -- -- 73
2019-09-20 11:00:00 22 12 Nordeste 26 Este 0 -- -- 77
2019-09-20 10:00:00 20.9 8 Este 16 Este 0 -- -- 82
2019-09-20 09:00:00 19.7 10 Nordeste 15 Nordeste 0 -- -- 81
2019-09-20 08:00:00 17 7 Noroeste 13 Noroeste 0 -- -- 80
2019-09-20 07:00:00 17 8 Norte 14 Norte 0 -- -- 80
2019-09-20 06:00:00 17.1 8 Norte 12 Norte 0 -- -- 79
2019-09-20 05:00:00 17.3 8 Norte 13 Norte 0 -- -- 83
2019-09-20 04:00:00 17.3 5 Norte 11 Noroeste 0 -- -- 81
2019-09-20 03:00:00 17.8 0 Calma 12 Noroeste 0 -- -- 81
2019-09-20 02:00:00 17.4 10 Noroeste 14 Norte 0 -- -- 82
2019-09-20 01:00:00 17.5 8 Norte 14 Nordeste 0 -- -- 84
2019-09-20 00:00:00 17.8 7 Norte 10 Norte 0 -- -- 86
2019-09-19 23:00:00 18.2 6 Noroeste 13 Nordeste 0 -- -- 88
2019-09-19 22:00:00 19.1 8 Nordeste 19 Nordeste 0 -- -- 89
2019-09-19 21:00:00 19.7 11 Nordeste 24 Nordeste 0 -- -- 88
2019-09-19 20:00:00 20.2 14 Nordeste 25 Nordeste 0 -- -- 84
2019-09-19 19:00:00 21.5 17 Nordeste 30 Nordeste 0 -- -- 78
2019-09-19 18:00:00 22.3 17 Nordeste 32 Nordeste 0 -- -- 75
2019-09-19 17:00:00 22.5 20 Nordeste 37 Nordeste 0 -- -- 74
2019-09-19 16:00:00 23.5 22 Nordeste 35 Este 0 -- -- 69
2019-09-19 15:00:00 23.8 21 Nordeste 36 Este 0 -- -- 69
2019-09-19 14:00:00 23.3 22 Nordeste 39 Este 0 -- -- 69
2019-09-19 13:00:00 22.8 22 Nordeste 36 Nordeste 0 -- -- 73
2019-09-19 12:00:00 22.4 27 Nordeste 36 Este 0 -- -- 73
2019-09-19 11:00:00 22.8 18 Este 29 Nordeste 0 -- -- 70
2019-09-19 10:00:00 21.4 15 Nordeste 28 Nordeste 0 -- -- 76
2019-09-19 09:00:00 19.4 13 Nordeste 22 Nordeste 0 -- -- 79
2019-09-19 08:00:00 17.6 17 Nordeste 27 Nordeste 0 -- -- 85
2019-09-19 07:00:00 17.8 11 Norte 18 Norte 0 -- -- 86
2019-09-19 06:00:00 17.3 9 Norte 18 Nordeste 0 -- -- 82
2019-09-19 05:00:00 17.1 9 Norte 18 Nordeste 0 -- -- 84
2019-09-19 04:00:00 17.6 10 Norte 18 Norte 0 -- -- 88
2019-09-19 03:00:00 17.7 12 Nordeste 24 Nordeste 0 -- -- 89
2019-09-19 02:00:00 17.9 13 Nordeste 21 Nordeste 0 -- -- 92
2019-09-19 01:00:00 18.3 14 Nordeste 25 Nordeste 0 -- -- 91
2019-09-19 00:00:00 18.9 18 Nordeste 29 Nordeste 0 -- -- 88
2019-09-18 23:00:00 19.1 19 Nordeste 33 Nordeste 0 -- -- 89
2019-09-18 22:00:00 19.3 17 Nordeste 27 Nordeste 0 -- -- 89
2019-09-18 21:00:00 19.5 16 Nordeste 30 Nordeste 0 -- -- 88
2019-09-18 20:00:00 19.8 15 Nordeste 29 Nordeste 0 -- -- 86
2019-09-18 19:00:00 20.7 19 Nordeste 31 Nordeste 0 -- -- 81
2019-09-18 18:00:00 22.1 21 Nordeste 32 Nordeste 0 -- -- 75
2019-09-18 17:00:00 23.2 21 Nordeste 34 Nordeste 0 -- -- 69
2019-09-18 16:00:00 23.6 22 Nordeste 35 Este 0 -- -- 68
2019-09-18 15:00:00 23.8 23 Nordeste 34 Nordeste 0 -- -- 65
2019-09-18 14:00:00 23.9 22 Nordeste 33 Este 0 -- -- 67
2019-09-18 13:00:00 23.8 22 Nordeste 33 Nordeste 0 -- -- 67
2019-09-18 12:00:00 23 21 Nordeste 33 Nordeste 0 -- -- 68
2019-09-18 11:00:00 22.1 22 Nordeste 34 Nordeste 0 -- -- 71
2019-09-18 10:00:00 20.7 18 Nordeste 32 Nordeste 0 -- -- 74
2019-09-18 09:00:00 18.8 19 Nordeste 28 Nordeste 0 -- -- 83
2019-09-18 08:00:00 17 12 Norte 20 Nordeste 0 -- -- 91
2019-09-18 07:00:00 17 10 Nordeste 19 Nordeste 0 -- -- 90
2019-09-18 06:00:00 17.2 13 Nordeste 21 Norte 0 -- -- 90
2019-09-18 05:00:00 17 8 Norte 14 Norte 0 -- -- 90
2019-09-18 04:00:00 17.6 11 Nordeste 19 Nordeste 0 -- -- 91
2019-09-18 03:00:00 18.3 11 Nordeste 18 Nordeste 0 -- -- 90
2019-09-18 02:00:00 18.5 10 Nordeste 20 Nordeste 0 -- -- 91
2019-09-18 01:00:00 18.7 14 Nordeste 23 Nordeste 0 -- -- 91
2019-09-18 00:00:00 18.9 13 Nordeste 23 Nordeste 0 -- -- 92
2019-09-17 23:00:00 19 10 Nordeste 19 Nordeste 0 -- -- 90
2019-09-17 22:00:00 19 12 Nordeste 22 Nordeste 0 -- -- 91
2019-09-17 21:00:00 19.1 16 Nordeste 27 Nordeste 0 -- -- 90
2019-09-17 20:00:00 19.6 15 Nordeste 29 Nordeste 0 -- -- 87